Sunday, July 22, 2018, 7:52 PM EDT
Back to Local

KNTU, Oceana, Naval Air Station

Location: Virginia Beach, VA, United States Lat: 36.817
Local Time: 7:52 PM EDT (23:52 GMT) Lon: -76.033
Time Zone: US/Eastern Elev: 22 ft

Show me the last for .
Show Decoded

2018-07-22 18:56 METAR KNTU 222256Z 14012G18KT 10SM SCT016 SCT280 28/23 A2980 RMK AO2 SLP093 T2
                 SET T02830233 =
2018-07-22 17:56 METAR KNTU 222156Z 15012G22KT 10SM SCT018 SCT026 29/18 A2980 RMK AO2 SLP092 T2
                 SET T02940183 =
2018-07-22 16:56 METAR KNTU 222056Z 14013G18KT 10SM SCT021 SCT250 30/18 A2979 RMK AO2 PK WND
                 14026/2013 SLP089 T2 SET T03000183 55003 =
2018-07-22 15:56 METAR KNTU 221956Z 15016G22KT 10SM SCT021 SCT250 31/18 A2977 RMK AO2 SLP082 CB
                 DSNT W-NW T2 SET T03060183 =
2018-07-22 14:56 METAR KNTU 221856Z 15014KT 10SM SCT023 SCT250 30/18 A2978 RMK AO2 SLP085 T2 SET
                 T03000183 =
2018-07-22 13:56 METAR KNTU 221756Z 14013G18KT 10SM SCT019 SCT037 BKN250 30/18 A2980 RMK AO2
                 SLP092 T2 SET T03000183 10300 20250 58009 =
2018-07-22 12:56 METAR KNTU 221656Z 12011KT 10SM SCT021 SCT110 29/18 A2981 RMK AO2 SLP097 T2 SET
                 T02940178 =
2018-07-22 11:56 METAR KNTU 221556Z 13008KT 10SM FEW015 FEW030 BKN110 27/16 A2981 RMK AO2 SLP098
                 T2 SET T02720161 =
2018-07-22 10:56 METAR KNTU 221456Z 16009KT 10SM SCT031 BKN040 BKN050 BKN250 28/16 A2982 RMK AO2
                 SLP101 T1 SET T02830161 51010 =
2018-07-22 09:56 METAR KNTU 221356Z 16010KT 10SM FEW023 SCT029 28/17 A2982 RMK AO2 SLP099 T2 SET
                 T02780172 =
2018-07-22 09:35 METAR KNTU 221335Z 17008KT 10SM FEW013 SCT022 SCT250 27/17 A2982 RMK AO2 T2 SET
                 T02720172 =
2018-07-22 08:56 METAR KNTU 221256Z 19007KT 10SM BKN013 BKN018 BKN030 27/18 A2982 RMK AO2 SLP100
                 T2 SET T02670178 =
2018-07-22 07:56 METAR KNTU 221156Z 14004KT 10SM FEW010 BKN014 BKN250 25/17 A2979 RMK AO2 SLP091
                 70084 T02500167 10250 20200 51008 $ =
2018-07-22 07:04 METAR KNTU 221104Z 00000KT 10SM FEW010 BKN016 OVC022 22/15 A2979 RMK AO2
                 T02220150 $ =
2018-07-22 06:56 METAR KNTU 221056Z 00000KT 10SM BKN011 OVC020 22/15 A2979 RMK AO2 SLP089 VCSH NE
                 T02220150 $ =
2018-07-22 05:56 METAR KNTU 220956Z 00000KT 10SM BKN013 BKN024 OVC100 21/14 A2978 RMK AO2 SLP087
                 T02110139 $ =
2018-07-22 04:56 METAR KNTU 220856Z 11004KT 10SM BKN017 BKN021 21/18 A2977 RMK AO2 SLP083
                 T02060183 50001 $ =
2018-07-22 03:56 METAR KNTU 220756Z 00000KT 10SM BKN028 BKN280 21/18 A2978 RMK AO2 SLP086
                 T02060178 $ =
2018-07-22 03:35 METAR KNTU 220735Z 21004KT 10SM BKN028 BKN280 21/18 A2978 RMK AO2 T02060178 $ =
2018-07-22 02:56 METAR KNTU 220656Z 19004KT 10SM SCT030 SCT280 20/18 A2978 RMK AO2 SLP087
                 T02000178 $ =
2018-07-22 01:56 METAR KNTU 220556Z 22008KT 10SM SCT280 21/18 A2977 RMK AO2 SLP082 60001
                 T02060178 10222 20206 51013 $ =
2018-07-22 00:56 METAR KNTU 220456Z 21008KT 10SM SCT280 21/18 A2976 RMK AO2 SLP080 T02110178
                 402560211 $ =
2018-07-21 23:56 METAR KNTU 220356Z 23010KT 7SM SCT016 21/18 A2974 RMK AO2 SLP073 T02110178 $ =
2018-07-21 23:46 METAR KNTU 220346Z 24011KT 7SM SCT016 21/18 A2974 RMK AO2 T02110178 $ =
2018-07-21 22:56 METAR KNTU 220256Z 24014G23KT 7SM OVC016 22/18 A2973 RMK AO2 SLP069 60001
                 T02170183 51026 $ =
2018-07-21 21:56 METAR KNTU 220156Z 24014KT 7SM OVC012 22/18 A2971 RMK AO2 RAE34 SLP064 P0000
                 T02170183 $ =
2018-07-21 21:35 METAR KNTU 220135Z 24013KT 7SM OVC012 22/18 A2970 RMK AO2 RAE34 P0000 T02170183
                 $ =
2018-07-21 20:56 METAR KNTU 220056Z 24013G19KT 5SM -RA BR BKN006 OVC011 22/19 A2968 RMK AO2
                 SLP053 P0001 T02170189 $ =
2018-07-21 19:56 METAR KNTU 212356Z 24014KT 3SM -RA BR BKN008 OVC012 22/19 A2965 RMK AO2 RAE12B45
                 CIG 005V010 SLP043 P0000 60022 T02220194 10256 20222 53033 $ =

Support USWX by starting your Amazon purchase here.